sensor_id;sensor_type;location;lat;lon;timestamp;P1;durP1;ratioP1;P2;durP2;ratioP2
72085;SDS011;64750;52.134;5.424;2023-03-13T00:01:35;15.00;;;3.05;;
72085;SDS011;64750;52.134;5.424;2023-03-13T00:04:03;13.00;;;3.00;;
72085;SDS011;64750;52.134;5.424;2023-03-13T00:06:31;13.63;;;3.13;;
72085;SDS011;64750;52.134;5.424;2023-03-13T00:09:00;13.95;;;3.42;;
72085;SDS011;64750;52.134;5.424;2023-03-13T00:11:28;16.05;;;3.22;;
72085;SDS011;64750;52.134;5.424;2023-03-13T00:13:55;18.88;;;2.95;;
72085;SDS011;64750;52.134;5.424;2023-03-13T00:16:22;14.93;;;3.00;;
72085;SDS011;64750;52.134;5.424;2023-03-13T00:18:50;19.97;;;3.33;;
72085;SDS011;64750;52.134;5.424;2023-03-13T00:21:19;10.55;;;2.63;;
72085;SDS011;64750;52.134;5.424;2023-03-13T00:23:47;15.93;;;2.33;;
72085;SDS011;64750;52.134;5.424;2023-03-13T00:26:15;11.07;;;2.10;;
72085;SDS011;64750;52.134;5.424;2023-03-13T00:28:46;9.95;;;2.47;;
72085;SDS011;64750;52.134;5.424;2023-03-13T00:31:20;17.07;;;2.60;;
72085;SDS011;64750;52.134;5.424;2023-03-13T00:33:49;9.63;;;2.80;;
72085;SDS011;64750;52.134;5.424;2023-03-13T00:36:19;10.88;;;2.92;;
72085;SDS011;64750;52.134;5.424;2023-03-13T00:38:51;13.05;;;2.60;;
72085;SDS011;64750;52.134;5.424;2023-03-13T00:41:20;16.13;;;2.83;;
72085;SDS011;64750;52.134;5.424;2023-03-13T00:43:49;17.40;;;2.53;;
72085;SDS011;64750;52.134;5.424;2023-03-13T00:46:16;17.30;;;2.53;;
72085;SDS011;64750;52.134;5.424;2023-03-13T00:48:45;18.08;;;2.90;;
72085;SDS011;64750;52.134;5.424;2023-03-13T00:51:12;12.38;;;2.58;;
72085;SDS011;64750;52.134;5.424;2023-03-13T00:53:39;12.50;;;2.63;;
72085;SDS011;64750;52.134;5.424;2023-03-13T00:56:07;11.50;;;3.27;;
72085;SDS011;64750;52.134;5.424;2023-03-13T00:58:36;12.13;;;2.72;;
72085;SDS011;64750;52.134;5.424;2023-03-13T01:01:23;12.88;;;2.97;;
72085;SDS011;64750;52.134;5.424;2023-03-13T01:03:52;11.70;;;2.80;;
72085;SDS011;64750;52.134;5.424;2023-03-13T01:06:21;13.32;;;2.50;;
72085;SDS011;64750;52.134;5.424;2023-03-13T01:08:50;14.03;;;2.97;;
72085;SDS011;64750;52.134;5.424;2023-03-13T01:11:18;8.77;;;2.85;;
72085;SDS011;64750;52.134;5.424;2023-03-13T01:13:46;12.07;;;2.60;;
72085;SDS011;64750;52.134;5.424;2023-03-13T01:16:14;10.35;;;2.05;;
72085;SDS011;64750;52.134;5.424;2023-03-13T01:18:43;10.35;;;2.80;;
72085;SDS011;64750;52.134;5.424;2023-03-13T01:21:15;10.83;;;2.53;;
72085;SDS011;64750;52.134;5.424;2023-03-13T01:23:42;9.32;;;2.20;;
72085;SDS011;64750;52.134;5.424;2023-03-13T01:26:08;7.47;;;2.00;;
72085;SDS011;64750;52.134;5.424;2023-03-13T01:28:35;8.57;;;2.33;;
72085;SDS011;64750;52.134;5.424;2023-03-13T01:31:15;5.35;;;1.80;;
72085;SDS011;64750;52.134;5.424;2023-03-13T01:33:44;8.47;;;2.57;;
72085;SDS011;64750;52.134;5.424;2023-03-13T01:36:12;7.15;;;2.13;;
72085;SDS011;64750;52.134;5.424;2023-03-13T01:38:39;7.78;;;2.60;;
72085;SDS011;64750;52.134;5.424;2023-03-13T01:41:06;8.88;;;2.45;;
72085;SDS011;64750;52.134;5.424;2023-03-13T01:43:35;5.80;;;2.42;;
72085;SDS011;64750;52.134;5.424;2023-03-13T01:51:49;8.25;;;2.63;;
72085;SDS011;64750;52.134;5.424;2023-03-13T01:56:57;5.43;;;1.60;;
72085;SDS011;64750;52.134;5.424;2023-03-13T01:59:31;2.70;;;1.43;;
72085;SDS011;64750;52.134;5.424;2023-03-13T02:02:05;5.22;;;2.50;;
72085;SDS011;64750;52.134;5.424;2023-03-13T02:04:34;5.65;;;1.80;;
72085;SDS011;64750;52.134;5.424;2023-03-13T02:07:04;4.93;;;1.77;;
72085;SDS011;64750;52.134;5.424;2023-03-13T02:09:35;6.70;;;2.10;;
72085;SDS011;64750;52.134;5.424;2023-03-13T02:12:10;5.10;;;2.30;;
72085;SDS011;64750;52.134;5.424;2023-03-13T02:14:41;8.63;;;2.40;;
72085;SDS011;64750;52.134;5.424;2023-03-13T02:17:10;5.68;;;2.20;;
72085;SDS011;64750;52.134;5.424;2023-03-13T02:19:42;8.27;;;2.10;;
72085;SDS011;64750;52.134;5.424;2023-03-13T02:27:50;7.78;;;2.88;;
72085;SDS011;64750;52.134;5.424;2023-03-13T02:30:20;4.43;;;2.30;;
72085;SDS011;64750;52.134;5.424;2023-03-13T02:32:46;4.10;;;2.42;;
72085;SDS011;64750;52.134;5.424;2023-03-13T02:35:14;4.32;;;2.40;;
72085;SDS011;64750;52.134;5.424;2023-03-13T02:37:43;7.83;;;2.93;;
72085;SDS011;64750;52.134;5.424;2023-03-13T02:40:14;4.55;;;3.00;;
72085;SDS011;64750;52.134;5.424;2023-03-13T02:42:43;7.95;;;2.90;;
72085;SDS011;64750;52.134;5.424;2023-03-13T02:45:14;3.08;;;2.70;;
72085;SDS011;64750;52.134;5.424;2023-03-13T02:47:42;3.97;;;2.38;;
72085;SDS011;64750;52.134;5.424;2023-03-13T02:50:09;4.40;;;3.67;;
72085;SDS011;64750;52.134;5.424;2023-03-13T02:52:44;5.90;;;3.63;;
72085;SDS011;64750;52.134;5.424;2023-03-13T02:55:15;5.45;;;3.50;;
72085;SDS011;64750;52.134;5.424;2023-03-13T02:57:47;5.25;;;3.85;;
72085;SDS011;64750;52.134;5.424;2023-03-13T03:00:14;6.18;;;3.58;;
72085;SDS011;64750;52.134;5.424;2023-03-13T03:02:42;5.23;;;3.90;;
72085;SDS011;64750;52.134;5.424;2023-03-13T03:05:10;6.75;;;4.28;;
72085;SDS011;64750;52.134;5.424;2023-03-13T03:07:37;5.85;;;4.25;;
72085;SDS011;64750;52.134;5.424;2023-03-13T03:10:04;8.48;;;5.00;;
72085;SDS011;64750;52.134;5.424;2023-03-13T03:12:31;5.43;;;4.82;;
72085;SDS011;64750;52.134;5.424;2023-03-13T03:14:57;9.07;;;6.07;;
72085;SDS011;64750;52.134;5.424;2023-03-13T03:17:24;8.88;;;4.90;;
72085;SDS011;64750;52.134;5.424;2023-03-13T03:19:50;9.98;;;5.40;;
72085;SDS011;64750;52.134;5.424;2023-03-13T03:22:16;5.93;;;4.95;;
72085;SDS011;64750;52.134;5.424;2023-03-13T03:24:43;8.77;;;5.45;;
72085;SDS011;64750;52.134;5.424;2023-03-13T03:27:09;9.63;;;6.07;;
72085;SDS011;64750;52.134;5.424;2023-03-13T03:29:36;5.47;;;4.93;;
72085;SDS011;64750;52.134;5.424;2023-03-13T03:32:02;12.05;;;5.05;;
72085;SDS011;64750;52.134;5.424;2023-03-13T03:34:28;10.20;;;5.85;;
72085;SDS011;64750;52.134;5.424;2023-03-13T03:36:55;8.32;;;5.68;;
72085;SDS011;64750;52.134;5.424;2023-03-13T03:39:21;9.73;;;5.63;;
72085;SDS011;64750;52.134;5.424;2023-03-13T03:41:48;6.80;;;5.40;;
72085;SDS011;64750;52.134;5.424;2023-03-13T03:44:14;7.35;;;6.05;;
72085;SDS011;64750;52.134;5.424;2023-03-13T03:46:41;6.07;;;5.45;;
72085;SDS011;64750;52.134;5.424;2023-03-13T03:49:07;10.05;;;5.72;;
72085;SDS011;64750;52.134;5.424;2023-03-13T03:51:33;6.93;;;5.70;;
72085;SDS011;64750;52.134;5.424;2023-03-13T03:54:00;5.88;;;5.25;;
72085;SDS011;64750;52.134;5.424;2023-03-13T03:56:26;5.03;;;4.63;;
72085;SDS011;64750;52.134;5.424;2023-03-13T03:58:52;6.88;;;4.97;;
72085;SDS011;64750;52.134;5.424;2023-03-13T04:01:19;5.35;;;4.85;;
72085;SDS011;64750;52.134;5.424;2023-03-13T04:03:45;8.50;;;4.37;;
72085;SDS011;64750;52.134;5.424;2023-03-13T04:06:13;4.28;;;3.95;;
72085;SDS011;64750;52.134;5.424;2023-03-13T04:08:40;5.00;;;3.95;;
72085;SDS011;64750;52.134;5.424;2023-03-13T04:11:06;5.63;;;4.00;;
72085;SDS011;64750;52.134;5.424;2023-03-13T04:13:33;6.50;;;4.28;;
72085;SDS011;64750;52.134;5.424;2023-03-13T04:16:04;4.03;;;3.60;;
72085;SDS011;64750;52.134;5.424;2023-03-13T04:18:32;7.78;;;3.90;;
72085;SDS011;64750;52.134;5.424;2023-03-13T04:20:59;6.05;;;3.83;;
72085;SDS011;64750;52.134;5.424;2023-03-13T04:23:27;4.20;;;3.78;;
72085;SDS011;64750;52.134;5.424;2023-03-13T04:25:54;8.57;;;4.55;;
72085;SDS011;64750;52.134;5.424;2023-03-13T04:28:20;9.17;;;4.40;;
72085;SDS011;64750;52.134;5.424;2023-03-13T04:30:46;6.65;;;3.60;;
72085;SDS011;64750;52.134;5.424;2023-03-13T04:33:13;4.13;;;3.60;;
72085;SDS011;64750;52.134;5.424;2023-03-13T04:35:39;5.70;;;4.05;;
72085;SDS011;64750;52.134;5.424;2023-03-13T04:38:06;5.53;;;4.45;;
72085;SDS011;64750;52.134;5.424;2023-03-13T04:40:33;9.53;;;3.77;;
72085;SDS011;64750;52.134;5.424;2023-03-13T04:42:59;5.82;;;3.75;;
72085;SDS011;64750;52.134;5.424;2023-03-13T04:45:25;6.05;;;3.97;;
72085;SDS011;64750;52.134;5.424;2023-03-13T04:47:53;3.95;;;3.60;;
72085;SDS011;64750;52.134;5.424;2023-03-13T04:50:19;6.47;;;3.92;;
72085;SDS011;64750;52.134;5.424;2023-03-13T04:52:46;6.07;;;4.30;;
72085;SDS011;64750;52.134;5.424;2023-03-13T04:55:14;4.20;;;3.70;;
72085;SDS011;64750;52.134;5.424;2023-03-13T04:57:41;5.38;;;3.90;;
72085;SDS011;64750;52.134;5.424;2023-03-13T05:00:07;4.90;;;3.50;;
72085;SDS011;64750;52.134;5.424;2023-03-13T05:02:35;3.63;;;3.30;;
72085;SDS011;64750;52.134;5.424;2023-03-13T05:05:01;3.77;;;3.47;;
72085;SDS011;64750;52.134;5.424;2023-03-13T05:07:28;5.90;;;3.78;;
72085;SDS011;64750;52.134;5.424;2023-03-13T05:09:54;4.55;;;3.50;;
72085;SDS011;64750;52.134;5.424;2023-03-13T05:12:21;5.75;;;3.58;;
72085;SDS011;64750;52.134;5.424;2023-03-13T05:14:47;6.55;;;2.72;;
72085;SDS011;64750;52.134;5.424;2023-03-13T05:17:15;6.13;;;3.00;;
72085;SDS011;64750;52.134;5.424;2023-03-13T05:19:42;6.45;;;3.58;;
72085;SDS011;64750;52.134;5.424;2023-03-13T05:22:09;5.78;;;2.67;;
72085;SDS011;64750;52.134;5.424;2023-03-13T05:24:35;7.00;;;3.10;;
72085;SDS011;64750;52.134;5.424;2023-03-13T05:27:02;3.67;;;2.72;;
72085;SDS011;64750;52.134;5.424;2023-03-13T05:29:28;4.47;;;2.50;;
72085;SDS011;64750;52.134;5.424;2023-03-13T05:31:55;7.40;;;2.80;;
72085;SDS011;64750;52.134;5.424;2023-03-13T05:34:21;2.65;;;2.45;;
72085;SDS011;64750;52.134;5.424;2023-03-13T05:36:48;6.60;;;3.05;;
72085;SDS011;64750;52.134;5.424;2023-03-13T05:39:14;3.85;;;2.40;;
72085;SDS011;64750;52.134;5.424;2023-03-13T05:41:40;3.30;;;2.67;;
72085;SDS011;64750;52.134;5.424;2023-03-13T05:44:07;4.35;;;2.15;;
72085;SDS011;64750;52.134;5.424;2023-03-13T05:46:33;5.88;;;2.90;;
72085;SDS011;64750;52.134;5.424;2023-03-13T05:49:00;3.80;;;1.95;;
72085;SDS011;64750;52.134;5.424;2023-03-13T05:51:26;3.88;;;2.00;;
72085;SDS011;64750;52.134;5.424;2023-03-13T05:53:52;4.70;;;1.90;;
72085;SDS011;64750;52.134;5.424;2023-03-13T05:56:19;4.50;;;2.47;;
72085;SDS011;64750;52.134;5.424;2023-03-13T05:58:45;8.40;;;2.08;;
72085;SDS011;64750;52.134;5.424;2023-03-13T06:01:12;8.00;;;2.00;;
72085;SDS011;64750;52.134;5.424;2023-03-13T06:03:39;3.13;;;1.98;;
72085;SDS011;64750;52.134;5.424;2023-03-13T06:06:06;7.57;;;2.00;;
72085;SDS011;64750;52.134;5.424;2023-03-13T06:08:32;5.50;;;2.15;;
72085;SDS011;64750;52.134;5.424;2023-03-13T06:10:59;5.93;;;1.95;;
72085;SDS011;64750;52.134;5.424;2023-03-13T06:13:26;5.05;;;2.13;;
72085;SDS011;64750;52.134;5.424;2023-03-13T06:15:53;4.85;;;2.25;;
72085;SDS011;64750;52.134;5.424;2023-03-13T06:18:21;5.13;;;2.30;;
72085;SDS011;64750;52.134;5.424;2023-03-13T06:20:48;7.47;;;2.10;;
72085;SDS011;64750;52.134;5.424;2023-03-13T06:23:15;7.97;;;2.17;;
72085;SDS011;64750;52.134;5.424;2023-03-13T06:25:45;3.13;;;2.22;;
72085;SDS011;64750;52.134;5.424;2023-03-13T06:28:12;4.32;;;2.20;;
72085;SDS011;64750;52.134;5.424;2023-03-13T06:30:38;8.73;;;2.53;;
72085;SDS011;64750;52.134;5.424;2023-03-13T06:33:05;5.10;;;2.45;;
72085;SDS011;64750;52.134;5.424;2023-03-13T06:35:32;4.50;;;1.60;;
72085;SDS011;64750;52.134;5.424;2023-03-13T06:38:09;4.63;;;1.60;;
72085;SDS011;64750;52.134;5.424;2023-03-13T06:40:36;4.57;;;2.60;;
72085;SDS011;64750;52.134;5.424;2023-03-13T06:43:02;4.57;;;1.90;;
72085;SDS011;64750;52.134;5.424;2023-03-13T06:45:29;3.05;;;1.75;;
72085;SDS011;64750;52.134;5.424;2023-03-13T06:47:55;5.82;;;2.20;;
72085;SDS011;64750;52.134;5.424;2023-03-13T06:50:21;6.18;;;2.30;;
72085;SDS011;64750;52.134;5.424;2023-03-13T06:52:49;5.22;;;1.90;;
72085;SDS011;64750;52.134;5.424;2023-03-13T06:55:15;5.80;;;1.90;;
72085;SDS011;64750;52.134;5.424;2023-03-13T06:57:42;4.03;;;2.15;;
72085;SDS011;64750;52.134;5.424;2023-03-13T07:00:09;7.50;;;2.42;;
72085;SDS011;64750;52.134;5.424;2023-03-13T07:02:36;2.03;;;1.70;;
72085;SDS011;64750;52.134;5.424;2023-03-13T07:05:03;7.03;;;2.13;;
72085;SDS011;64750;52.134;5.424;2023-03-13T07:07:31;4.17;;;1.93;;
72085;SDS011;64750;52.134;5.424;2023-03-13T07:09:58;5.28;;;1.90;;
72085;SDS011;64750;52.134;5.424;2023-03-13T07:12:25;4.43;;;2.20;;
72085;SDS011;64750;52.134;5.424;2023-03-13T07:14:51;4.07;;;1.80;;
72085;SDS011;64750;52.134;5.424;2023-03-13T07:17:18;4.63;;;1.83;;
72085;SDS011;64750;52.134;5.424;2023-03-13T07:19:44;4.23;;;2.10;;
72085;SDS011;64750;52.134;5.424;2023-03-13T07:22:11;4.88;;;1.70;;
72085;SDS011;64750;52.134;5.424;2023-03-13T07:24:37;5.10;;;1.85;;
72085;SDS011;64750;52.134;5.424;2023-03-13T07:27:04;4.22;;;2.22;;
72085;SDS011;64750;52.134;5.424;2023-03-13T07:29:33;5.15;;;1.98;;
72085;SDS011;64750;52.134;5.424;2023-03-13T07:31:59;7.07;;;1.90;;
72085;SDS011;64750;52.134;5.424;2023-03-13T07:34:26;3.13;;;1.50;;
72085;SDS011;64750;52.134;5.424;2023-03-13T07:36:52;5.28;;;1.50;;
72085;SDS011;64750;52.134;5.424;2023-03-13T07:39:19;9.30;;;2.40;;
72085;SDS011;64750;52.134;5.424;2023-03-13T07:41:45;3.55;;;2.15;;
72085;SDS011;64750;52.134;5.424;2023-03-13T07:44:11;4.10;;;1.73;;
72085;SDS011;64750;52.134;5.424;2023-03-13T07:46:38;3.08;;;1.50;;
72085;SDS011;64750;52.134;5.424;2023-03-13T07:49:04;5.72;;;2.33;;
72085;SDS011;64750;52.134;5.424;2023-03-13T07:51:30;8.93;;;1.95;;
72085;SDS011;64750;52.134;5.424;2023-03-13T07:54:08;3.15;;;1.92;;
72085;SDS011;64750;52.134;5.424;2023-03-13T07:56:35;4.17;;;1.90;;
72085;SDS011;64750;52.134;5.424;2023-03-13T07:59:02;4.00;;;2.15;;
72085;SDS011;64750;52.134;5.424;2023-03-13T08:01:28;4.13;;;1.90;;
72085;SDS011;64750;52.134;5.424;2023-03-13T08:03:56;4.13;;;2.28;;
72085;SDS011;64750;52.134;5.424;2023-03-13T08:06:26;4.75;;;2.50;;
72085;SDS011;64750;52.134;5.424;2023-03-13T08:08:58;2.97;;;1.70;;
72085;SDS011;64750;52.134;5.424;2023-03-13T08:11:25;4.88;;;2.15;;
72085;SDS011;64750;52.134;5.424;2023-03-13T08:13:54;5.22;;;2.38;;
72085;SDS011;64750;52.134;5.424;2023-03-13T08:16:25;4.57;;;2.00;;
72085;SDS011;64750;52.134;5.424;2023-03-13T08:18:55;5.50;;;2.22;;
72085;SDS011;64750;52.134;5.424;2023-03-13T08:21:23;4.03;;;1.87;;
72085;SDS011;64750;52.134;5.424;2023-03-13T08:23:52;3.92;;;1.75;;
72085;SDS011;64750;52.134;5.424;2023-03-13T08:26:20;2.58;;;1.80;;
72085;SDS011;64750;52.134;5.424;2023-03-13T08:28:51;2.95;;;2.05;;
72085;SDS011;64750;52.134;5.424;2023-03-13T08:31:20;7.07;;;2.97;;
72085;SDS011;64750;52.134;5.424;2023-03-13T08:33:51;5.60;;;2.00;;
72085;SDS011;64750;52.134;5.424;2023-03-13T08:36:19;4.05;;;2.15;;
72085;SDS011;64750;52.134;5.424;2023-03-13T08:38:46;3.40;;;1.95;;
72085;SDS011;64750;52.134;5.424;2023-03-13T08:41:13;4.85;;;1.85;;
72085;SDS011;64750;52.134;5.424;2023-03-13T08:43:42;6.50;;;1.80;;
72085;SDS011;64750;52.134;5.424;2023-03-13T08:46:09;2.67;;;1.77;;
72085;SDS011;64750;52.134;5.424;2023-03-13T08:48:35;5.60;;;1.88;;
72085;SDS011;64750;52.134;5.424;2023-03-13T08:51:03;3.13;;;1.90;;
72085;SDS011;64750;52.134;5.424;2023-03-13T08:53:30;5.40;;;1.90;;
72085;SDS011;64750;52.134;5.424;2023-03-13T08:55:58;5.20;;;2.05;;
72085;SDS011;64750;52.134;5.424;2023-03-13T08:58:25;3.60;;;1.73;;
72085;SDS011;64750;52.134;5.424;2023-03-13T09:00:53;6.60;;;1.83;;
72085;SDS011;64750;52.134;5.424;2023-03-13T09:03:20;6.70;;;1.65;;
72085;SDS011;64750;52.134;5.424;2023-03-13T09:05:46;4.40;;;1.67;;
72085;SDS011;64750;52.134;5.424;2023-03-13T09:08:21;7.70;;;1.88;;
72085;SDS011;64750;52.134;5.424;2023-03-13T09:10:53;5.73;;;1.70;;
72085;SDS011;64750;52.134;5.424;2023-03-13T09:13:24;5.93;;;1.60;;
72085;SDS011;64750;52.134;5.424;2023-03-13T09:15:54;2.97;;;1.60;;
72085;SDS011;64750;52.134;5.424;2023-03-13T09:18:22;3.97;;;1.20;;
72085;SDS011;64750;52.134;5.424;2023-03-13T09:20:48;6.28;;;1.67;;
72085;SDS011;64750;52.134;5.424;2023-03-13T09:23:15;1.63;;;1.43;;
72085;SDS011;64750;52.134;5.424;2023-03-13T09:25:42;4.00;;;1.50;;
72085;SDS011;64750;52.134;5.424;2023-03-13T09:28:08;3.20;;;1.60;;
72085;SDS011;64750;52.134;5.424;2023-03-13T09:30:35;3.28;;;1.15;;
72085;SDS011;64750;52.134;5.424;2023-03-13T09:33:01;3.55;;;1.70;;
72085;SDS011;64750;52.134;5.424;2023-03-13T09:35:28;3.13;;;1.00;;
72085;SDS011;64750;52.134;5.424;2023-03-13T09:37:54;3.03;;;1.08;;
72085;SDS011;64750;52.134;5.424;2023-03-13T09:40:21;5.00;;;1.17;;
72085;SDS011;64750;52.134;5.424;2023-03-13T09:42:53;8.32;;;1.25;;
72085;SDS011;64750;52.134;5.424;2023-03-13T09:45:28;3.35;;;1.10;;
72085;SDS011;64750;52.134;5.424;2023-03-13T09:48:01;5.33;;;1.30;;
72085;SDS011;64750;52.134;5.424;2023-03-13T09:50:57;3.17;;;1.02;;
72085;SDS011;64750;52.134;5.424;2023-03-13T09:53:48;3.97;;;0.90;;
72085;SDS011;64750;52.134;5.424;2023-03-13T09:56:26;3.22;;;1.00;;
72085;SDS011;64750;52.134;5.424;2023-03-13T10:02:15;4.23;;;0.80;;
72085;SDS011;64750;52.134;5.424;2023-03-13T10:04:50;2.40;;;1.08;;
72085;SDS011;64750;52.134;5.424;2023-03-13T10:07:22;3.55;;;1.00;;
72085;SDS011;64750;52.134;5.424;2023-03-13T10:09:48;0.95;;;0.68;;
72085;SDS011;64750;52.134;5.424;2023-03-13T10:12:27;3.47;;;0.90;;
72085;SDS011;64750;52.134;5.424;2023-03-13T10:17:34;5.03;;;0.95;;
72085;SDS011;64750;52.134;5.424;2023-03-13T10:22:59;5.18;;;0.68;;
72085;SDS011;64750;52.134;5.424;2023-03-13T10:25:56;2.42;;;0.57;;
72085;SDS011;64750;52.134;5.424;2023-03-13T10:28:23;3.47;;;0.93;;
72085;SDS011;64750;52.134;5.424;2023-03-13T10:31:13;1.73;;;0.80;;
72085;SDS011;64750;52.134;5.424;2023-03-13T10:33:45;3.13;;;0.98;;
72085;SDS011;64750;52.134;5.424;2023-03-13T10:36:12;4.10;;;1.00;;
72085;SDS011;64750;52.134;5.424;2023-03-13T10:38:46;3.58;;;0.93;;
72085;SDS011;64750;52.134;5.424;2023-03-13T10:41:28;2.30;;;0.60;;
72085;SDS011;64750;52.134;5.424;2023-03-13T10:44:02;5.63;;;1.13;;
72085;SDS011;64750;52.134;5.424;2023-03-13T10:46:31;1.98;;;0.60;;
72085;SDS011;64750;52.134;5.424;2023-03-13T10:49:01;0.70;;;0.60;;
72085;SDS011;64750;52.134;5.424;2023-03-13T10:51:33;4.30;;;1.35;;
72085;SDS011;64750;52.134;5.424;2023-03-13T10:59:43;2.03;;;0.90;;
72085;SDS011;64750;52.134;5.424;2023-03-13T11:02:19;2.58;;;0.90;;
72085;SDS011;64750;52.134;5.424;2023-03-13T11:04:46;4.63;;;1.10;;
72085;SDS011;64750;52.134;5.424;2023-03-13T11:07:26;3.00;;;0.60;;
72085;SDS011;64750;52.134;5.424;2023-03-13T11:10:36;1.85;;;0.85;;
72085;SDS011;64750;52.134;5.424;2023-03-13T11:12:56;2.33;;;0.60;;
72085;SDS011;64750;52.134;5.424;2023-03-13T11:15:28;3.03;;;0.65;;
72085;SDS011;64750;52.134;5.424;2023-03-13T11:18:17;3.70;;;0.88;;
72085;SDS011;64750;52.134;5.424;2023-03-13T11:20:54;1.47;;;0.60;;
72085;SDS011;64750;52.134;5.424;2023-03-13T11:23:42;3.40;;;0.80;;
72085;SDS011;64750;52.134;5.424;2023-03-13T11:26:28;3.00;;;0.88;;
72085;SDS011;64750;52.134;5.424;2023-03-13T11:31:59;3.17;;;1.30;;
72085;SDS011;64750;52.134;5.424;2023-03-13T11:34:36;8.70;;;0.70;;
72085;SDS011;64750;52.134;5.424;2023-03-13T11:37:17;3.63;;;0.70;;
72085;SDS011;64750;52.134;5.424;2023-03-13T11:42:34;2.78;;;0.80;;
72085;SDS011;64750;52.134;5.424;2023-03-13T11:50:17;3.28;;;0.73;;
72085;SDS011;64750;52.134;5.424;2023-03-13T11:52:56;3.78;;;0.60;;
72085;SDS011;64750;52.134;5.424;2023-03-13T12:03:37;1.73;;;0.60;;
72085;SDS011;64750;52.134;5.424;2023-03-13T12:06:10;2.05;;;1.00;;
72085;SDS011;64750;52.134;5.424;2023-03-13T12:09:08;1.88;;;0.57;;
72085;SDS011;64750;52.134;5.424;2023-03-13T12:11:41;2.88;;;0.73;;
72085;SDS011;64750;52.134;5.424;2023-03-13T12:14:42;2.63;;;0.63;;
72085;SDS011;64750;52.134;5.424;2023-03-13T12:20:05;4.45;;;0.73;;
72085;SDS011;64750;52.134;5.424;2023-03-13T12:22:43;2.33;;;0.70;;
72085;SDS011;64750;52.134;5.424;2023-03-13T12:25:17;2.40;;;0.77;;
72085;SDS011;64750;52.134;5.424;2023-03-13T12:28:15;5.40;;;1.00;;
72085;SDS011;64750;52.134;5.424;2023-03-13T12:30:55;4.38;;;0.60;;
72085;SDS011;64750;52.134;5.424;2023-03-13T12:33:29;6.85;;;0.75;;
72085;SDS011;64750;52.134;5.424;2023-03-13T12:41:43;4.13;;;0.87;;
72085;SDS011;64750;52.134;5.424;2023-03-13T12:44:19;2.00;;;0.60;;
72085;SDS011;64750;52.134;5.424;2023-03-13T13:00:24;5.30;;;1.15;;
72085;SDS011;64750;52.134;5.424;2023-03-13T13:03:29;5.57;;;1.58;;
72085;SDS011;64750;52.134;5.424;2023-03-13T13:14:00;5.72;;;1.50;;
72085;SDS011;64750;52.134;5.424;2023-03-13T13:16:27;3.47;;;0.90;;
72085;SDS011;64750;52.134;5.424;2023-03-13T13:18:55;4.30;;;1.45;;
72085;SDS011;64750;52.134;5.424;2023-03-13T13:40:57;5.10;;;1.63;;
72085;SDS011;64750;52.134;5.424;2023-03-13T13:43:34;5.43;;;1.00;;
72085;SDS011;64750;52.134;5.424;2023-03-13T13:46:23;4.22;;;1.40;;
72085;SDS011;64750;52.134;5.424;2023-03-13T13:51:33;7.45;;;1.73;;
72085;SDS011;64750;52.134;5.424;2023-03-13T13:54:10;5.63;;;1.40;;
72085;SDS011;64750;52.134;5.424;2023-03-13T13:57:13;8.10;;;1.20;;
72085;SDS011;64750;52.134;5.424;2023-03-13T13:59:51;8.13;;;1.88;;
72085;SDS011;64750;52.134;5.424;2023-03-13T14:02:34;9.80;;;1.57;;
72085;SDS011;64750;52.134;5.424;2023-03-13T14:05:03;7.43;;;1.58;;
72085;SDS011;64750;52.134;5.424;2023-03-13T14:12:33;3.67;;;1.10;;
72085;SDS011;64750;52.134;5.424;2023-03-13T14:17:44;12.52;;;1.95;;
72085;SDS011;64750;52.134;5.424;2023-03-13T14:23:02;3.05;;;1.40;;
72085;SDS011;64750;52.134;5.424;2023-03-13T14:30:45;11.90;;;2.30;;
72085;SDS011;64750;52.134;5.424;2023-03-13T14:33:13;8.68;;;1.90;;
72085;SDS011;64750;52.134;5.424;2023-03-13T14:35:40;7.72;;;1.83;;
72085;SDS011;64750;52.134;5.424;2023-03-13T14:38:14;6.85;;;1.67;;
72085;SDS011;64750;52.134;5.424;2023-03-13T14:40:48;13.57;;;1.90;;
72085;SDS011;64750;52.134;5.424;2023-03-13T14:45:48;8.73;;;2.22;;
72085;SDS011;64750;52.134;5.424;2023-03-13T14:50:47;14.77;;;1.70;;
72085;SDS011;64750;52.134;5.424;2023-03-13T14:53:16;8.37;;;2.07;;
72085;SDS011;64750;52.134;5.424;2023-03-13T14:55:45;12.93;;;1.65;;
72085;SDS011;64750;52.134;5.424;2023-03-13T15:00:48;9.07;;;1.83;;
72085;SDS011;64750;52.134;5.424;2023-03-13T15:05:42;9.90;;;1.73;;
72085;SDS011;64750;52.134;5.424;2023-03-13T15:08:11;9.07;;;1.65;;
72085;SDS011;64750;52.134;5.424;2023-03-13T15:10:39;12.52;;;1.95;;
72085;SDS011;64750;52.134;5.424;2023-03-13T15:13:27;9.15;;;1.95;;
72085;SDS011;64750;52.134;5.424;2023-03-13T15:16:01;10.43;;;1.95;;
72085;SDS011;64750;52.134;5.424;2023-03-13T15:18:38;14.10;;;1.80;;
72085;SDS011;64750;52.134;5.424;2023-03-13T15:23:45;8.77;;;1.55;;
72085;SDS011;64750;52.134;5.424;2023-03-13T15:26:18;11.23;;;2.75;;
72085;SDS011;64750;52.134;5.424;2023-03-13T15:28:46;9.80;;;1.75;;
72085;SDS011;64750;52.134;5.424;2023-03-13T15:31:13;9.07;;;1.93;;
72085;SDS011;64750;52.134;5.424;2023-03-13T15:33:40;10.45;;;1.90;;
72085;SDS011;64750;52.134;5.424;2023-03-13T15:36:09;11.93;;;1.75;;
72085;SDS011;64750;52.134;5.424;2023-03-13T15:38:36;9.40;;;1.63;;
72085;SDS011;64750;52.134;5.424;2023-03-13T15:41:03;10.57;;;1.90;;
72085;SDS011;64750;52.134;5.424;2023-03-13T15:43:30;15.20;;;1.90;;
72085;SDS011;64750;52.134;5.424;2023-03-13T15:45:56;9.38;;;2.25;;
72085;SDS011;64750;52.134;5.424;2023-03-13T15:48:24;16.08;;;2.33;;
72085;SDS011;64750;52.134;5.424;2023-03-13T15:50:58;6.13;;;1.50;;
72085;SDS011;64750;52.134;5.424;2023-03-13T15:53:27;13.10;;;2.75;;
72085;SDS011;64750;52.134;5.424;2023-03-13T15:55:56;7.53;;;1.60;;
72085;SDS011;64750;52.134;5.424;2023-03-13T15:58:25;11.30;;;2.22;;
72085;SDS011;64750;52.134;5.424;2023-03-13T16:00:54;7.93;;;1.77;;
72085;SDS011;64750;52.134;5.424;2023-03-13T16:03:22;10.18;;;1.73;;
72085;SDS011;64750;52.134;5.424;2023-03-13T16:05:51;9.05;;;2.15;;
72085;SDS011;64750;52.134;5.424;2023-03-13T16:08:20;7.80;;;1.57;;
72085;SDS011;64750;52.134;5.424;2023-03-13T16:11:00;10.30;;;2.22;;
72085;SDS011;64750;52.134;5.424;2023-03-13T16:13:26;11.38;;;1.85;;
72085;SDS011;64750;52.134;5.424;2023-03-13T16:15:53;8.57;;;2.00;;
72085;SDS011;64750;52.134;5.424;2023-03-13T16:18:20;13.52;;;2.20;;
72085;SDS011;64750;52.134;5.424;2023-03-13T16:20:49;10.47;;;2.33;;
72085;SDS011;64750;52.134;5.424;2023-03-13T16:23:16;9.07;;;1.83;;
72085;SDS011;64750;52.134;5.424;2023-03-13T16:25:43;8.02;;;2.17;;
72085;SDS011;64750;52.134;5.424;2023-03-13T16:28:11;10.93;;;1.80;;
72085;SDS011;64750;52.134;5.424;2023-03-13T16:30:38;8.43;;;1.67;;
72085;SDS011;64750;52.134;5.424;2023-03-13T16:33:06;9.43;;;2.20;;
72085;SDS011;64750;52.134;5.424;2023-03-13T16:35:33;12.48;;;2.10;;
72085;SDS011;64750;52.134;5.424;2023-03-13T16:37:59;13.15;;;2.42;;
72085;SDS011;64750;52.134;5.424;2023-03-13T16:40:28;12.85;;;2.15;;
72085;SDS011;64750;52.134;5.424;2023-03-13T16:42:56;10.73;;;2.05;;
72085;SDS011;64750;52.134;5.424;2023-03-13T16:45:23;9.97;;;2.13;;
72085;SDS011;64750;52.134;5.424;2023-03-13T16:47:49;7.40;;;2.33;;
72085;SDS011;64750;52.134;5.424;2023-03-13T16:52:57;13.32;;;2.15;;
72085;SDS011;64750;52.134;5.424;2023-03-13T16:55:24;7.60;;;1.70;;
72085;SDS011;64750;52.134;5.424;2023-03-13T16:57:54;9.80;;;2.00;;
72085;SDS011;64750;52.134;5.424;2023-03-13T17:00:25;15.43;;;2.58;;
72085;SDS011;64750;52.134;5.424;2023-03-13T17:02:54;13.07;;;2.28;;
72085;SDS011;64750;52.134;5.424;2023-03-13T17:05:23;10.10;;;2.30;;
72085;SDS011;64750;52.134;5.424;2023-03-13T17:07:50;11.77;;;2.10;;
72085;SDS011;64750;52.134;5.424;2023-03-13T17:10:21;15.37;;;2.47;;
72085;SDS011;64750;52.134;5.424;2023-03-13T17:12:55;16.08;;;2.90;;